Terminal Aerodrome Forecast
Issued by NWS Cleveland, OH

Home | Current Version | Previous Version | Graphics & Text | Print | Product List | Glossary Off
Versions: 1 2 3 4 5 6 7 8 9 10 11 12 13 14 15 16 17 18 19 20 21 22 23 24 25 26 27 28 29 30 31

000
FTUS41 KCLE 211200 AAB
TAFCLE
TAF AMD
KCLE 211247Z 2113/2218 22012G20KT P6SM SCT015 OVC025
      TEMPO 2113/2115 BKN015
     FM211600 26012G22KT P6SM BKN035
     FM211900 30015G22KT P6SM VCTS BKN035CB
      TEMPO 2119/2123 5SM -SHRA OVC035
     FM220100 33012KT P6SM VCSH BKN030=

USA.gov is the U.S. government's official web portal to all federal, state and local government web resources and services.